Time;durP1;ratioP1;P1;durP2;ratioP2;P2;SDS_P1;SDS_P2;PMS_P1;PMS_P2;Temp;Humidity;BMP_temperature;BMP_pressure;BME280_temperature;BME280_humidity;BME280_pressure;Samples;Min_cycle;Max_cycle;Signal;HPM_P1;HPM_P2
2023/03/25 00:01:59;;;;;;;18.48;3.25;;;;;;;9.79;61.17;100804.09;4957847;28;20049;-82
2023/03/25 00:04:25;;;;;;;3.15;2.10;;;;;;;9.89;61.03;100818.31;4973580;28;20480;-82
2023/03/25 00:06:54;;;;;;;4.20;3.03;;;;;;;9.96;61.00;100824.06;4973687;28;20030;-82
2023/03/25 00:09:20;;;;;;;3.53;2.60;;;;;;;9.85;60.97;100821.94;4958020;28;20582;-82
2023/03/25 00:11:48;;;;;;;4.15;2.30;;;;;;;9.77;61.28;100824.00;4973660;28;20026;-82
2023/03/25 00:14:15;;;;;;;3.35;2.50;;;;;;;9.55;61.75;100800.00;4974101;28;20034;-82
2023/03/25 00:16:41;;;;;;;4.70;2.75;;;;;;;9.59;61.67;100812.72;4973878;28;20085;-82
2023/03/25 00:19:08;;;;;;;5.03;2.63;;;;;;;9.71;61.34;100824.25;4973700;28;20030;-82
2023/03/25 00:21:34;;;;;;;7.13;2.28;;;;;;;9.66;61.26;100828.78;4989875;28;20035;-82
2023/03/25 00:24:00;;;;;;;6.28;2.38;;;;;;;9.57;61.60;100821.44;4989899;28;20037;-82
2023/03/25 00:26:28;;;;;;;5.70;2.33;;;;;;;9.54;62.07;100826.69;4973488;28;20026;-82
2023/03/25 00:28:54;;;;;;;4.60;2.90;;;;;;;9.55;61.84;100823.25;4989645;28;20031;-82
2023/03/25 00:31:20;;;;;;;4.07;2.53;;;;;;;9.46;62.07;100804.63;4957522;28;20575;-82
2023/03/25 00:33:45;;;;;;;3.80;2.30;;;;;;;9.43;62.07;100802.16;4957148;28;20409;-82
2023/03/25 00:36:12;;;;;;;5.88;2.95;;;;;;;9.50;62.10;100795.00;4957363;28;20050;-82
2023/03/25 00:38:38;;;;;;;2.53;2.20;;;;;;;9.55;62.26;100802.56;4973764;28;20984;-82
2023/03/25 00:41:07;;;;;;;6.15;2.95;;;;;;;9.51;62.60;100788.94;4989793;28;20471;-82
2023/03/25 00:43:33;;;;;;;4.43;2.72;;;;;;;9.54;62.34;100798.28;4992974;28;20034;-82
2023/03/25 00:45:58;;;;;;;6.38;2.75;;;;;;;9.47;62.62;100795.97;4960994;28;20033;-82
2023/03/25 00:48:26;;;;;;;3.53;2.65;;;;;;;9.38;62.16;100770.53;4960565;28;20026;-82
2023/03/25 00:50:51;;;;;;;4.18;2.70;;;;;;;9.45;62.25;100756.47;4977279;28;20488;-82
2023/03/25 00:53:17;;;;;;;5.20;3.03;;;;;;;9.41;62.06;100739.41;4993514;28;20040;-82
2023/03/25 00:55:42;;;;;;;4.20;3.00;;;;;;;9.58;62.33;100758.53;4992955;28;20479;-82
2023/03/25 00:58:08;;;;;;;4.70;2.72;;;;;;;9.68;61.98;100775.31;4976708;28;20045;-82
2023/03/25 01:00:34;;;;;;;5.75;3.28;;;;;;;9.66;62.17;100775.38;4993193;28;20057;-82
2023/03/25 01:03:02;;;;;;;4.15;3.03;;;;;;;9.63;62.01;100785.00;4992806;28;20484;-82
2023/03/25 01:05:28;;;;;;;3.97;2.72;;;;;;;9.52;62.42;100792.34;4961239;28;20108;-82
2023/03/25 01:07:54;;;;;;;2.83;2.22;;;;;;;9.47;62.19;100790.81;4992892;28;20492;-82
2023/03/25 01:10:20;;;;;;;5.93;2.95;;;;;;;9.46;62.11;100789.13;4960647;28;20496;-82
2023/03/25 01:12:45;;;;;;;6.25;4.13;;;;;;;9.36;62.57;100777.50;4960573;28;20035;-82
2023/03/25 01:15:11;;;;;;;3.45;2.38;;;;;;;9.36;62.80;100776.69;4992716;28;20488;-82
2023/03/25 01:17:36;;;;;;;5.13;2.45;;;;;;;9.36;62.73;100768.94;4976326;28;20026;-82
2023/03/25 01:20:05;;;;;;;5.50;2.53;;;;;;;9.25;62.79;100768.53;4976509;28;20030;-82
2023/03/25 01:22:30;;;;;;;5.47;3.53;;;;;;;9.04;63.45;100754.75;4976697;28;20057;-82
2023/03/25 01:24:56;;;;;;;5.28;2.60;;;;;;;8.97;63.45;100748.16;4960328;28;20468;-82
2023/03/25 01:27:23;;;;;;;4.35;2.83;;;;;;;9.14;63.49;100789.59;4960197;28;20515;-82
2023/03/25 01:29:49;;;;;;;3.67;2.47;;;;;;;8.93;63.77;100762.91;4976678;28;20034;-82
2023/03/25 01:32:14;;;;;;;6.30;3.95;;;;;;;9.00;63.66;100787.59;4959937;28;20408;-82
2023/03/25 01:34:41;;;;;;;2.92;2.33;;;;;;;8.95;63.59;100770.59;4959817;28;20053;-82
2023/03/25 01:37:08;;;;;;;4.25;2.75;;;;;;;8.96;63.36;100761.97;4960431;28;20507;-82
2023/03/25 01:39:34;;;;;;;3.80;2.75;;;;;;;8.96;63.57;100759.41;4976422;28;20470;-82
2023/03/25 01:41:59;;;;;;;2.15;1.70;;;;;;;9.01;63.75;100771.19;4960119;28;20033;-82
2023/03/25 01:44:26;;;;;;;3.80;2.80;;;;;;;8.95;64.21;100775.75;4992305;28;20507;-82
2023/03/25 01:46:52;;;;;;;4.60;2.92;;;;;;;8.96;64.09;100772.28;4993202;28;20034;-82
2023/03/25 01:49:23;;;;;;;3.58;1.90;;;;;;;8.94;63.85;100764.59;4975745;28;20026;-82
2023/03/25 01:52:13;;;;;;;2.80;2.00;;;;;;;9.05;63.68;100757.28;4975905;28;20061;-82
2023/03/25 01:54:39;;;;;;;5.45;2.95;;;;;;;8.96;63.52;100754.22;4974416;28;20069;-82
2023/03/25 01:57:05;;;;;;;5.25;3.13;;;;;;;8.93;63.51;100737.09;4975642;28;20026;-82
2023/03/25 01:59:31;;;;;;;4.45;3.03;;;;;;;8.71;63.93;100713.91;4959756;28;20034;-82
2023/03/25 02:01:57;;;;;;;4.82;3.28;;;;;;;8.91;64.03;100750.06;4975501;28;20440;-82
2023/03/25 02:04:57;;;;;;;4.50;2.97;;;;;;;8.95;63.89;100744.78;4975847;28;20018;-82
2023/03/25 02:07:29;;;;;;;4.72;2.90;;;;;;;8.77;63.75;100736.06;4991541;28;20034;-82
2023/03/25 02:09:56;;;;;;;3.13;2.40;;;;;;;8.74;63.72;100734.41;4976563;28;20034;-82
2023/03/25 02:12:22;;;;;;;4.18;2.83;;;;;;;8.85;63.91;100745.19;4959710;28;20032;-82
2023/03/25 02:14:47;;;;;;;4.88;3.38;;;;;;;8.78;64.31;100748.91;4975123;28;20026;-82
2023/03/25 02:17:29;;;;;;;4.07;2.72;;;;;;;8.77;63.93;100742.06;4975207;28;20080;-82
2023/03/25 02:20:07;;;;;;;3.47;2.00;;;;;;;8.78;64.42;100746.31;4976834;28;20035;-82
2023/03/25 02:22:48;;;;;;;3.92;3.28;;;;;;;8.83;64.22;100757.28;5007717;28;20030;-82
2023/03/25 02:25:44;;;;;;;4.43;3.03;;;;;;;8.90;63.63;100748.41;4992953;28;20119;-82
2023/03/25 02:28:35;;;;;;;6.65;3.28;;;;;;;8.73;64.23;100737.91;4992370;28;20022;-82
2023/03/25 02:31:33;;;;;;;4.47;2.35;;;;;;;8.74;64.20;100752.47;4992382;28;20026;-82
2023/03/25 02:34:11;;;;;;;5.75;2.50;;;;;;;8.67;64.55;100753.63;4979923;28;20046;-82
2023/03/25 02:37:19;;;;;;;5.25;2.72;;;;;;;8.73;64.41;100744.81;5007300;28;20050;-82
2023/03/25 02:39:51;;;;;;;4.72;3.08;;;;;;;8.51;64.17;100729.34;4990371;28;20042;-82
2023/03/25 02:42:22;;;;;;;3.10;2.17;;;;;;;8.54;64.86;100744.69;4959841;28;20034;-82
2023/03/25 02:45:19;;;;;;;4.05;2.75;;;;;;;8.57;64.62;100745.41;4974478;28;20026;-82
2023/03/25 02:47:47;;;;;;;3.90;2.88;;;;;;;8.49;64.93;100741.44;4992154;28;20031;-82
2023/03/25 02:50:18;;;;;;;10.80;2.45;;;;;;;8.38;64.73;100728.13;4975105;28;20034;-82
2023/03/25 02:52:46;;;;;;;3.55;2.05;;;;;;;8.29;65.06;100717.25;4975482;28;20034;-82
2023/03/25 02:55:13;;;;;;;3.58;2.67;;;;;;;8.44;65.00;100738.19;4958719;28;20503;-82
2023/03/25 02:57:40;;;;;;;7.43;2.70;;;;;;;8.44;65.00;100735.63;4974283;28;20026;-82
2023/03/25 03:00:11;;;;;;;5.65;3.13;;;;;;;8.47;64.82;100735.53;4958729;28;20038;-82
2023/03/25 03:02:37;;;;;;;2.47;1.95;;;;;;;8.37;64.83;100721.31;4975471;28;20081;-82
2023/03/25 03:05:20;;;;;;;3.60;2.45;;;;;;;8.48;64.94;100730.31;4974794;28;20026;-82
2023/03/25 03:07:45;;;;;;;7.40;2.90;;;;;;;8.45;65.01;100734.72;4958586;28;20483;-82
2023/03/25 03:10:21;;;;;;;5.78;4.22;;;;;;;8.47;65.09;100738.09;4974552;28;20034;-82
2023/03/25 03:13:24;;;;;;;4.95;3.03;;;;;;;8.51;64.83;100745.66;4990603;28;20069;-82
2023/03/25 03:16:07;;;;;;;4.07;3.28;;;;;;;8.53;64.79;100737.84;4990829;28;20510;-82
2023/03/25 03:18:50;;;;;;;4.72;3.17;;;;;;;8.24;64.87;100710.56;4974404;28;20096;-82
2023/03/25 03:21:28;;;;;;;5.97;3.08;;;;;;;8.17;65.77;100704.00;4974349;28;20492;-82
2023/03/25 03:24:09;;;;;;;4.82;3.13;;;;;;;8.34;65.71;100737.69;4959481;28;20526;-82
2023/03/25 03:27:10;;;;;;;6.55;2.97;;;;;;;8.32;65.46;100740.31;4974045;28;20038;-82
2023/03/25 03:29:47;;;;;;;6.68;3.40;;;;;;;8.23;65.50;100720.03;4990862;28;20511;-82
2023/03/25 03:32:19;;;;;;;5.18;2.90;;;;;;;8.24;66.19;100728.59;4974098;28;20408;-82
2023/03/25 03:34:46;;;;;;;;;;;;;;;8.37;66.00;100745.34;4974782;28;20058;-82
2023/03/25 03:37:17;;;;;;;4.43;3.22;;;;;;;8.24;66.59;100751.81;5006579;28;20363;-82
2023/03/25 03:39:43;;;;;;;4.95;2.50;;;;;;;8.05;66.44;100715.56;4974346;28;20117;-82
2023/03/25 03:42:22;;;;;;;3.47;2.35;;;;;;;8.30;66.31;100755.00;4973795;28;20496;-82
2023/03/25 03:44:50;;;;;;;5.05;3.53;;;;;;;8.27;66.64;100752.56;4959471;28;20030;-82
2023/03/25 03:47:28;;;;;;;3.70;2.90;;;;;;;8.18;66.70;100745.16;4957940;28;20030;-82
2023/03/25 03:49:57;;;;;;;3.58;2.53;;;;;;;8.11;66.77;100741.13;4958197;28;20050;-82
2023/03/25 03:52:36;;;;;;;4.07;2.60;;;;;;;7.94;67.08;100712.56;4958140;28;20500;-82
2023/03/25 03:55:13;;;;;;;4.47;3.03;;;;;;;8.20;66.70;100745.94;4990467;28;20029;-82
2023/03/25 03:57:42;;;;;;;5.68;3.25;;;;;;;8.15;66.58;100732.38;4974071;28;20038;-82
2023/03/25 04:00:08;;;;;;;9.23;3.60;;;;;;;8.16;66.77;100734.06;4973973;28;20025;-82
2023/03/25 04:03:03;;;;;;;5.72;3.30;;;;;;;8.23;67.04;100750.97;5006389;28;20026;-82
2023/03/25 04:05:31;;;;;;;4.30;3.47;;;;;;;8.18;67.01;100747.75;4971144;28;20070;-82
2023/03/25 04:08:01;;;;;;;3.83;2.88;;;;;;;8.05;67.07;100725.88;4974020;28;20105;-82
2023/03/25 04:10:33;;;;;;;5.97;2.78;;;;;;;8.11;67.70;100754.00;4957868;28;20060;-82
2023/03/25 04:13:00;;;;;;;5.32;3.42;;;;;;;8.08;67.48;100748.97;4990076;28;21137;-82
2023/03/25 04:15:25;;;;;;;10.00;3.45;;;;;;;8.24;67.09;100762.94;4974171;28;20049;-82
2023/03/25 04:17:51;;;;;;;3.67;3.15;;;;;;;8.23;67.14;100761.28;4976239;28;20030;-82
2023/03/25 04:20:22;;;;;;;4.22;2.78;;;;;;;8.13;67.47;100754.78;4977126;28;20477;-82
2023/03/25 04:22:48;;;;;;;6.55;3.40;;;;;;;8.17;67.57;100765.84;4978096;28;20022;-82
2023/03/25 04:25:14;;;;;;;4.68;3.00;;;;;;;8.13;67.58;100752.19;4977588;28;20484;-82
2023/03/25 04:27:39;;;;;;;7.47;4.82;;;;;;;8.16;68.07;100759.84;4977061;28;20052;-82
2023/03/25 04:30:06;;;;;;;6.20;3.67;;;;;;;8.20;67.67;100763.97;4977206;28;20033;-82
2023/03/25 04:32:31;;;;;;;8.93;4.22;;;;;;;8.24;67.22;100770.69;4977715;28;20416;-82
2023/03/25 04:34:57;;;;;;;5.78;4.85;;;;;;;8.24;67.65;100762.13;4993281;28;20046;-82
2023/03/25 04:37:26;;;;;;;3.83;2.88;;;;;;;8.27;67.56;100767.19;4977262;28;20022;-82
2023/03/25 04:39:55;;;;;;;5.97;4.72;;;;;;;8.15;67.55;100750.41;4976695;28;20033;-82
2023/03/25 04:42:24;;;;;;;6.93;4.43;;;;;;;8.23;67.22;100760.44;4977710;28;20042;-82
2023/03/25 04:44:51;;;;;;;7.60;3.67;;;;;;;8.33;67.29;100774.66;4977769;28;20030;-82
2023/03/25 04:47:17;;;;;;;9.27;5.43;;;;;;;8.37;66.95;100788.34;4960994;28;20060;-82
2023/03/25 04:49:43;;;;;;;9.10;5.78;;;;;;;7.92;66.88;100720.34;4977131;28;20447;-82
2023/03/25 04:52:09;;;;;;;10.15;6.57;;;;;;;8.26;66.38;100792.13;4993349;28;20030;-82
2023/03/25 04:54:37;;;;;;;5.95;4.53;;;;;;;8.32;66.55;100802.19;4960530;28;20030;-82
2023/03/25 04:57:02;;;;;;;10.15;6.10;;;;;;;8.38;66.48;100802.91;4992923;28;20034;-82
2023/03/25 04:59:28;;;;;;;10.05;6.22;;;;;;;8.30;66.42;100793.66;4960700;28;20026;-82
2023/03/25 05:01:53;;;;;;;7.07;4.88;;;;;;;8.28;66.67;100794.63;4976621;28;20042;-82
2023/03/25 05:04:19;;;;;;;5.97;3.83;;;;;;;8.32;66.31;100802.19;4976820;28;20492;-82
2023/03/25 05:06:46;;;;;;;6.05;4.32;;;;;;;8.29;66.59;100802.31;4976907;28;20038;-82
2023/03/25 05:09:15;;;;;;;5.70;3.33;;;;;;;8.30;66.20;100796.25;4976574;28;20520;-82
2023/03/25 05:11:40;;;;;;;6.28;4.10;;;;;;;8.26;66.44;100789.53;4976421;28;20065;-82
2023/03/25 05:14:07;;;;;;;4.97;3.60;;;;;;;8.38;66.02;100797.75;4976935;28;20038;-82
2023/03/25 05:16:32;;;;;;;8.38;4.50;;;;;;;8.33;66.02;100778.06;4992651;28;20567;-82
2023/03/25 05:18:58;;;;;;;5.22;3.20;;;;;;;8.50;65.94;100802.44;4960415;28;20054;-82
2023/03/25 05:21:23;;;;;;;6.10;4.07;;;;;;;8.53;65.66;100802.31;4960290;28;20093;-82
2023/03/25 05:23:50;;;;;;;7.80;3.95;;;;;;;8.55;66.11;100803.09;4976200;28;20404;-82
2023/03/25 05:26:15;;;;;;;9.70;4.82;;;;;;;8.55;65.96;100788.47;4960607;28;20034;-82
2023/03/25 05:28:41;;;;;;;6.00;4.45;;;;;;;8.62;66.03;100794.22;4958864;28;20033;-82
2023/03/25 05:31:10;;;;;;;9.43;5.78;;;;;;;8.74;65.82;100791.16;4976351;28;20412;-82
2023/03/25 05:33:41;;;;;;;6.28;4.00;;;;;;;8.81;65.61;100769.41;4976482;28;20084;-82
2023/03/25 05:36:10;;;;;;;7.53;4.63;;;;;;;8.78;65.05;100742.91;4976728;28;20054;-82
2023/03/25 05:38:40;;;;;;;6.88;4.85;;;;;;;9.04;64.90;100771.06;4991846;28;20065;-82
2023/03/25 05:41:09;;;;;;;7.03;4.70;;;;;;;9.23;65.07;100770.31;4992839;28;20065;-82
2023/03/25 05:43:37;;;;;;;6.30;3.22;;;;;;;9.47;64.52;100772.75;4976358;28;20029;-82
2023/03/25 05:46:04;;;;;;;7.32;4.60;;;;;;;9.64;65.53;100776.38;4991982;28;20424;-82
2023/03/25 05:48:31;;;;;;;5.93;4.25;;;;;;;9.62;64.72;100742.81;4976149;28;20484;-82
2023/03/25 05:50:59;;;;;;;8.00;4.03;;;;;;;9.87;64.19;100755.53;4976214;28;20041;-82
2023/03/25 05:53:24;;;;;;;8.60;4.95;;;;;;;10.05;63.79;100765.06;4959923;28;20044;-82
2023/03/25 05:55:50;;;;;;;7.25;4.20;;;;;;;10.24;63.00;100774.63;4975876;28;20034;-82
2023/03/25 05:58:16;;;;;;;7.00;4.50;;;;;;;10.24;62.78;100772.88;4976120;28;20059;-82
2023/03/25 06:00:42;;;;;;;7.15;4.65;;;;;;;10.31;62.61;100776.00;4992008;28;20040;-82
2023/03/25 06:03:09;;;;;;;5.63;4.30;;;;;;;10.42;62.16;100780.69;4992170;28;20607;-82
2023/03/25 06:05:38;;;;;;;6.70;4.40;;;;;;;10.45;62.26;100757.28;4959904;28;20510;-82
2023/03/25 06:08:03;;;;;;;7.20;4.93;;;;;;;10.73;61.96;100774.94;4991512;28;20034;-82
2023/03/25 06:10:29;;;;;;;6.10;3.97;;;;;;;10.81;61.64;100767.63;4975527;28;20132;-82
2023/03/25 06:12:54;;;;;;;8.02;5.28;;;;;;;10.97;61.06;100771.16;4991627;28;20026;-82
2023/03/25 06:15:27;;;;;;;5.63;3.95;;;;;;;11.12;61.49;100777.38;4975937;28;20069;-82
2023/03/25 06:17:54;;;;;;;6.63;4.75;;;;;;;11.27;61.60;100775.78;4976729;28;20030;-82
2023/03/25 06:20:20;;;;;;;8.70;6.65;;;;;;;11.27;61.79;100771.44;4991721;28;20487;-82
2023/03/25 06:22:45;;;;;;;11.95;5.53;;;;;;;11.27;61.65;100774.00;4990924;28;20023;-82
2023/03/25 06:25:12;;;;;;;9.95;4.78;;;;;;;11.33;61.42;100775.47;4991475;28;20103;-82
2023/03/25 06:27:40;;;;;;;8.07;4.60;;;;;;;11.34;61.60;100778.00;4975228;28;20054;-82
2023/03/25 06:30:11;;;;;;;6.53;4.80;;;;;;;11.38;61.48;100783.84;4990889;28;20412;-82
2023/03/25 06:32:37;;;;;;;8.25;5.60;;;;;;;11.33;61.51;100778.06;4975290;28;20068;-82
2023/03/25 06:35:04;;;;;;;9.82;5.30;;;;;;;11.36;61.16;100786.50;4958705;28;20050;-82
2023/03/25 06:37:29;;;;;;;7.32;5.07;;;;;;;11.37;60.77;100777.00;4974839;28;20068;-82
2023/03/25 06:39:55;;;;;;;10.27;6.03;;;;;;;11.42;60.51;100772.44;4958395;28;20460;-82
2023/03/25 06:42:22;;;;;;;7.72;5.20;;;;;;;11.50;60.23;100780.63;4974694;28;20035;-82
2023/03/25 06:44:48;;;;;;;6.00;4.63;;;;;;;11.66;59.84;100794.50;5007328;28;20026;-82
2023/03/25 06:47:14;;;;;;;7.78;5.22;;;;;;;11.83;59.43;100792.84;4958707;28;20031;-82
2023/03/25 06:49:40;;;;;;;7.32;5.28;;;;;;;12.00;59.27;100798.00;4990686;28;20030;-82
2023/03/25 06:52:05;;;;;;;9.38;5.43;;;;;;;12.19;59.04;100806.50;4991071;28;20046;-82
2023/03/25 06:54:30;;;;;;;7.90;5.85;;;;;;;12.29;58.46;100784.34;4974870;28;20034;-82
2023/03/25 06:56:56;;;;;;;10.18;6.40;;;;;;;12.48;57.87;100786.75;4974750;28;20026;-82
2023/03/25 06:59:21;;;;;;;7.32;5.13;;;;;;;12.74;57.55;100794.88;4990875;28;20190;-82
2023/03/25 07:01:47;;;;;;;8.57;4.72;;;;;;;12.90;56.51;100785.34;4991014;28;20034;-82
2023/03/25 07:04:12;;;;;;;10.00;5.20;;;;;;;13.01;56.49;100771.75;4973986;28;20393;-82
2023/03/25 07:06:38;;;;;;;7.75;4.65;;;;;;;13.22;56.38;100798.28;4990542;28;20030;-82
2023/03/25 07:09:03;;;;;;;9.77;5.15;;;;;;;13.36;56.11;100790.53;4958382;28;20068;-82
2023/03/25 07:11:29;;;;;;;5.88;4.53;;;;;;;13.56;55.74;100791.97;4958311;28;20034;-82
2023/03/25 07:13:54;;;;;;;8.20;4.55;;;;;;;13.69;54.86;100779.94;4974419;28;20026;-82
2023/03/25 07:16:21;;;;;;;8.98;5.50;;;;;;;13.86;52.67;100794.50;4974423;28;20030;-82
2023/03/25 07:18:46;;;;;;;6.25;4.10;;;;;;;14.05;52.84;100793.31;4957901;28;20051;-82
2023/03/25 07:21:12;;;;;;;9.23;5.00;;;;;;;14.24;52.86;100792.19;4990429;28;20030;-82
2023/03/25 07:23:37;;;;;;;9.05;5.82;;;;;;;14.30;52.02;100791.84;4974288;28;20511;-82
2023/03/25 07:26:03;;;;;;;10.55;5.95;;;;;;;14.39;52.71;100778.25;4958109;28;20037;-82
2023/03/25 07:28:28;;;;;;;12.10;5.75;;;;;;;14.53;52.23;100777.41;4957969;28;20125;-82
2023/03/25 07:30:54;;;;;;;10.00;6.05;;;;;;;14.66;51.68;100793.13;4973862;28;20030;-82
2023/03/25 07:33:19;;;;;;;11.18;6.47;;;;;;;14.75;51.44;100798.56;4973611;28;20026;-82
2023/03/25 07:35:45;;;;;;;12.27;6.65;;;;;;;14.79;51.09;100794.00;4973830;28;20053;-82
2023/03/25 07:38:10;;;;;;;9.88;6.68;;;;;;;14.86;50.75;100788.31;4974059;28;20037;-82
2023/03/25 07:40:36;;;;;;;10.80;6.72;;;;;;;14.91;51.24;100790.59;4974050;28;20037;-82
2023/03/25 07:43:01;;;;;;;12.55;8.20;;;;;;;15.07;50.12;100800.88;4990431;28;20457;-82
2023/03/25 07:45:27;;;;;;;16.05;9.02;;;;;;;15.06;49.77;100775.75;4973733;28;20081;-82
2023/03/25 07:47:52;;;;;;;14.38;9.05;;;;;;;15.21;49.85;100799.03;4973771;28;20053;-82
2023/03/25 07:50:18;;;;;;;14.00;8.70;;;;;;;15.29;49.77;100782.06;4973708;28;20030;-82
2023/03/25 07:52:44;;;;;;;15.60;8.98;;;;;;;15.29;49.38;100766.41;4989339;28;20041;-82
2023/03/25 07:55:10;;;;;;;14.38;8.07;;;;;;;15.58;48.85;100783.56;4974251;28;20037;-82
2023/03/25 07:57:35;;;;;;;11.90;7.93;;;;;;;15.60;48.45;100766.06;4989863;28;20408;-82
2023/03/25 08:00:02;;;;;;;13.27;6.72;;;;;;;15.76;49.63;100777.13;4989944;28;20030;-82
2023/03/25 08:02:27;;;;;;;15.77;8.32;;;;;;;15.94;49.09;100784.66;4990548;28;20029;-82
2023/03/25 08:04:53;;;;;;;14.02;8.40;;;;;;;15.95;48.84;100778.50;4973467;28;20030;-82
2023/03/25 08:07:20;;;;;;;13.07;6.93;;;;;;;16.04;48.94;100776.09;4973677;28;20038;-82
2023/03/25 08:09:45;;;;;;;11.50;7.32;;;;;;;15.99;48.39;100778.16;4973854;28;20101;-82
2023/03/25 08:12:11;;;;;;;12.00;7.05;;;;;;;16.11;48.39;100778.25;4973882;28;20034;-82
2023/03/25 08:14:36;;;;;;;12.55;7.32;;;;;;;16.08;48.23;100766.25;4990221;28;20416;-82
2023/03/25 08:17:04;;;;;;;11.10;6.72;;;;;;;16.10;48.29;100774.81;4973449;28;20031;-82
2023/03/25 08:19:30;;;;;;;19.35;8.95;;;;;;;15.77;47.68;100723.19;4957611;28;20045;-82
2023/03/25 08:21:55;;;;;;;13.20;7.97;;;;;;;16.15;47.51;100777.94;4990019;28;20396;-82
2023/03/25 08:24:22;;;;;;;15.75;8.15;;;;;;;16.00;47.44;100760.72;4989457;28;20037;-82
2023/03/25 08:26:48;;;;;;;11.68;7.57;;;;;;;16.05;47.70;100753.44;4973731;28;20026;-82
2023/03/25 08:29:16;;;;;;;17.40;9.32;;;;;;;16.13;47.43;100758.94;4973387;28;20053;-82
2023/03/25 08:31:41;;;;;;;12.95;7.78;;;;;;;16.27;47.48;100755.34;4973398;28;20534;-82
2023/03/25 08:34:07;;;;;;;15.30;9.77;;;;;;;16.07;47.90;100701.97;4973484;28;20050;-82
2023/03/25 08:36:32;;;;;;;17.15;8.77;;;;;;;16.50;47.82;100746.72;4989353;28;20500;-82
2023/03/25 08:38:58;;;;;;;11.40;7.93;;;;;;;16.65;46.85;100750.03;4973473;28;20038;-82
2023/03/25 08:41:23;;;;;;;14.23;7.93;;;;;;;16.81;46.98;100750.63;4973403;28;20499;-82
2023/03/25 08:43:49;;;;;;;14.10;7.70;;;;;;;16.96;47.04;100745.19;4973518;28;20039;-82
2023/03/25 08:46:15;;;;;;;13.82;7.95;;;;;;;17.05;46.26;100726.22;4972881;28;20408;-82
2023/03/25 08:48:40;;;;;;;13.27;7.38;;;;;;;17.23;46.92;100743.16;4973407;28;20037;-82
2023/03/25 08:51:06;;;;;;;10.95;6.82;;;;;;;17.22;46.66;100733.66;4989583;28;20084;-82
2023/03/25 08:53:31;;;;;;;20.25;7.28;;;;;;;17.36;46.78;100736.06;4989460;28;20031;-82
2023/03/25 08:55:57;;;;;;;14.40;8.25;;;;;;;17.39;46.39;100733.19;4957146;28;20034;-82
2023/03/25 08:58:23;;;;;;;14.40;8.27;;;;;;;17.33;47.72;100720.59;4973251;28;20540;-82
2023/03/25 09:00:53;;;;;;;11.50;7.47;;;;;;;17.43;47.81;100741.66;4973319;28;20026;-82
2023/03/25 09:03:19;;;;;;;10.95;6.45;;;;;;;17.47;47.16;100746.53;4975324;28;20034;-82
2023/03/25 09:05:45;;;;;;;15.05;7.05;;;;;;;17.56;48.08;100744.16;4960839;28;20093;-82
2023/03/25 09:08:10;;;;;;;10.88;6.65;;;;;;;17.46;47.31;100705.63;4976609;28;20066;-82
2023/03/25 09:10:36;;;;;;;13.80;7.30;;;;;;;17.66;47.35;100726.81;4976607;28;20476;-82
2023/03/25 09:13:01;;;;;;;12.82;7.05;;;;;;;17.68;47.49;100723.13;4992781;28;20034;-82
2023/03/25 09:15:27;;;;;;;15.38;9.02;;;;;;;17.71;47.19;100719.50;4960113;28;20463;-82
2023/03/25 09:17:52;;;;;;;13.13;8.13;;;;;;;17.79;47.01;100732.78;4992399;28;20030;-82
2023/03/25 09:20:18;;;;;;;15.25;7.68;;;;;;;17.83;47.17;100728.16;4976248;28;20038;-82
2023/03/25 09:22:43;;;;;;;12.10;7.00;;;;;;;17.83;47.19;100717.72;4992485;28;20027;-82
2023/03/25 09:25:09;;;;;;;9.90;6.63;;;;;;;17.76;46.75;100701.63;4976094;28;20054;-82
2023/03/25 09:27:35;;;;;;;14.07;7.50;;;;;;;17.97;47.33;100715.66;4992542;28;20065;-82
2023/03/25 09:30:00;;;;;;;15.60;7.72;;;;;;;18.03;47.19;100714.34;4975797;28;20088;-82
2023/03/25 09:32:26;;;;;;;14.50;7.90;;;;;;;18.08;46.88;100713.97;4992438;28;20081;-82
2023/03/25 09:34:51;;;;;;;13.07;6.95;;;;;;;18.15;46.64;100699.47;4976013;28;20054;-82
2023/03/25 09:37:17;;;;;;;10.80;6.05;;;;;;;18.33;46.16;100706.69;4992221;28;20432;-82
2023/03/25 09:39:42;;;;;;;16.17;7.68;;;;;;;18.51;46.45;100709.63;4976113;28;20496;-82
2023/03/25 09:42:32;;;;;;;14.55;7.80;;;;;;;18.59;46.19;100717.69;4959832;28;20029;-82
2023/03/25 09:45:19;;;;;;;13.52;7.40;;;;;;;18.61;45.93;100697.44;4992774;28;20053;-82
2023/03/25 09:48:11;;;;;;;12.43;7.13;;;;;;;18.63;46.48;100690.28;4992261;28;20049;-82
2023/03/25 09:50:36;;;;;;;18.15;7.57;;;;;;;18.57;46.82;100666.34;4988905;28;20049;-83
2023/03/25 09:53:39;;;;;;;14.30;8.13;;;;;;;18.87;46.38;100695.31;4992127;28;20026;-82
2023/03/25 09:56:06;;;;;;;17.20;8.00;;;;;;;18.95;46.18;100686.81;4991947;28;20034;-82
2023/03/25 09:58:49;;;;;;;17.70;8.05;;;;;;;19.11;45.86;100686.38;4975781;28;20114;-82
2023/03/25 10:01:14;;;;;;;12.80;8.00;;;;;;;19.29;45.23;100684.84;4959739;28;20487;-82
2023/03/25 10:03:52;;;;;;;19.48;7.88;;;;;;;19.45;45.59;100686.97;4992998;28;20033;-82
2023/03/25 10:06:18;;;;;;;16.08;7.75;;;;;;;19.62;45.25;100675.91;4992694;28;20500;-82
2023/03/25 10:08:51;;;;;;;11.35;7.28;;;;;;;19.79;44.68;100682.34;4991422;28;20408;-82
2023/03/25 10:11:35;;;;;;;19.00;7.97;;;;;;;19.93;44.07;100678.50;4991219;28;20041;-82
2023/03/25 10:14:20;;;;;;;11.50;7.13;;;;;;;19.96;43.71;100673.84;4990716;28;20463;-82
2023/03/25 10:17:04;;;;;;;21.30;8.45;;;;;;;19.97;43.80;100674.66;4976613;28;20034;-82
2023/03/25 10:19:50;;;;;;;13.90;8.23;;;;;;;20.02;43.75;100672.44;4993044;28;20030;-82
2023/03/25 10:22:28;;;;;;;13.90;7.90;;;;;;;19.79;43.32;100634.25;4992729;28;20054;-82
2023/03/25 10:25:02;;;;;;;10.88;6.43;;;;;;;20.07;43.69;100665.00;4960602;28;20041;-82
2023/03/25 10:27:38;;;;;;;11.60;6.63;;;;;;;20.01;43.72;100649.78;4959165;28;20034;-82
2023/03/25 10:30:24;;;;;;;13.32;7.28;;;;;;;20.04;43.38;100655.59;4958987;28;20126;-82
2023/03/25 10:32:54;;;;;;;12.68;6.43;;;;;;;20.13;42.49;100653.94;4975134;28;20088;-82
2023/03/25 10:35:20;;;;;;;16.42;7.70;;;;;;;20.02;42.36;100647.03;4990897;28;20393;-82
2023/03/25 10:37:46;;;;;;;16.23;6.53;;;;;;;20.13;41.64;100646.06;4990874;28;20030;-82
2023/03/25 10:40:19;;;;;;;14.90;7.65;;;;;;;20.08;41.68;100636.97;4959068;28;20070;-82
2023/03/25 10:42:54;;;;;;;14.55;6.85;;;;;;;20.16;41.40;100637.94;4974612;28;20026;-82
2023/03/25 10:45:19;;;;;;;11.32;6.70;;;;;;;20.22;42.31;100640.00;4991894;28;20030;-82
2023/03/25 10:47:45;;;;;;;9.77;6.22;;;;;;;20.13;42.54;100595.34;4974852;28;20062;-82
2023/03/25 10:50:15;;;;;;;10.80;6.57;;;;;;;20.48;43.60;100627.19;4975154;28;20031;-83
2023/03/25 10:52:41;;;;;;;17.63;6.47;;;;;;;20.60;43.85;100636.59;4975011;28;20081;-82
2023/03/25 10:55:24;;;;;;;11.73;6.60;;;;;;;20.60;43.17;100622.63;4975311;28;20022;-82
2023/03/25 10:57:50;;;;;;;11.50;6.18;;;;;;;20.72;42.60;100608.34;4974654;28;20049;-82
2023/03/25 11:00:19;;;;;;;10.13;6.22;;;;;;;20.76;42.78;100615.00;4974611;28;20030;-82
2023/03/25 11:02:48;;;;;;;10.68;5.57;;;;;;;20.84;42.88;100616.91;4990659;28;20026;-82
2023/03/25 11:05:17;;;;;;;12.02;6.50;;;;;;;20.83;43.50;100616.06;4974140;28;20345;-82
2023/03/25 11:07:45;;;;;;;11.75;7.28;;;;;;;20.81;44.48;100617.19;4974773;28;20503;-83
2023/03/25 11:10:16;;;;;;;11.13;6.07;;;;;;;20.81;43.97;100599.63;4974593;28;20027;-82
2023/03/25 11:12:44;;;;;;;11.77;5.78;;;;;;;21.10;42.03;100620.59;4991591;28;20034;-82
2023/03/25 11:15:15;;;;;;;9.55;5.72;;;;;;;21.39;40.17;100617.88;4974687;28;20066;-82
2023/03/25 11:17:41;;;;;;;8.02;5.03;;;;;;;21.65;37.74;100610.16;4974287;28;20109;-82
2023/03/25 11:20:20;;;;;;;9.82;5.97;;;;;;;21.87;38.14;100616.81;4974304;28;20483;-82
2023/03/25 11:22:47;;;;;;;11.35;4.78;;;;;;;21.95;37.12;100605.53;4991790;28;20027;-83
2023/03/25 11:25:29;;;;;;;13.27;6.32;;;;;;;22.13;36.57;100598.53;4990084;28;20034;-83
2023/03/25 11:28:00;;;;;;;11.10;5.75;;;;;;;22.14;36.56;100600.16;4974298;28;20519;-83
2023/03/25 11:30:26;;;;;;;11.25;6.55;;;;;;;22.13;36.12;100581.88;4974726;28;20066;-82
2023/03/25 11:33:06;;;;;;;11.77;6.10;;;;;;;22.34;35.84;100603.47;4974224;28;20073;-83
2023/03/25 11:35:36;;;;;;;8.45;4.88;;;;;;;22.29;36.50;100564.38;4958149;28;20050;-83
2023/03/25 11:38:21;;;;;;;7.95;5.32;;;;;;;22.14;36.10;100563.28;4974205;28;20519;-82